< < Back
Terminal Aerodrome Forecast


Current Version              Previous Versions:   1  2  3  4  5  6  7  8  9  

Terminal Aerodrome Forecast

745
FTUS44 KMRX 230523
TAFTYS
TAF
KTYS 230523Z 2306/2406 33004KT P6SM SKC
     FM231200 03008KT P6SM FEW150
     FM240100 VRB03KT P6SM SKC=



Latest METAR

046
SAUS80 KWBC 230800 RRB
MTRTYS
METAR KTYS 230753Z 36007KT 10SM CLR 13/01 A2990 RMK AO2 SLP121
T01280011


USA.gov is the U.S. government's official web portal to all federal, state and local government web resources and services.